Time;durP1;ratioP1;P1;durP2;ratioP2;P2;SDS_P1;SDS_P2;PMS_P1;PMS_P2;Temp;Humidity;BMP_temperature;BMP_pressure;BME280_temperature;BME280_humidity;BME280_pressure;Samples;Min_cycle;Max_cycle;Signal;HPM_P1;HPM_P2
2021/11/28 00:01:17;;;;;;;9.98;6.40;;;;;;;;;;5058483;28;20215;-80
2021/11/28 00:03:45;;;;;;;12.75;5.72;;;;;;;;;;5062791;28;20194;-81
2021/11/28 00:06:20;;;;;;;6.82;5.45;;;;;;;;;;5066275;28;20198;-81
2021/11/28 00:11:30;;;;;;;10.50;6.63;;;;;;;;;;5044512;28;20662;-80
2021/11/28 00:14:07;;;;;;;9.25;6.75;;;;;;;;;;5061966;28;20201;-81
2021/11/28 00:16:34;;;;;;;7.55;5.50;;;;;;;;;;5064948;28;20573;-79
2021/11/28 00:19:01;;;;;;;9.02;5.63;;;;;;;;;;5054726;28;20691;-79
2021/11/28 00:21:30;;;;;;;10.77;6.63;;;;;;;;;;5058104;28;20209;-79
2021/11/28 00:23:57;;;;;;;11.77;6.05;;;;;;;;;;5053238;28;20191;-79
2021/11/28 00:26:24;;;;;;;10.65;6.70;;;;;;;;;;5062661;28;20198;-79
2021/11/28 00:28:51;;;;;;;6.75;5.35;;;;;;;;;;5052283;28;20566;-79
2021/11/28 00:31:18;;;;;;;6.47;4.78;;;;;;;;;;5058658;28;20194;-79
2021/11/28 00:33:45;;;;;;;6.57;5.50;;;;;;;;;;5053761;28;20195;-80
2021/11/28 00:36:12;;;;;;;7.03;5.45;;;;;;;;;;5052567;28;20218;-79
2021/11/28 00:38:41;;;;;;;7.15;5.47;;;;;;;;;;5063068;28;20195;-79
2021/11/28 00:41:08;;;;;;;6.90;5.63;;;;;;;;;;5064427;28;20205;-79
2021/11/28 00:43:35;;;;;;;5.80;5.20;;;;;;;;;;5059778;28;20191;-80
2021/11/28 00:46:02;;;;;;;6.78;5.05;;;;;;;;;;5055324;28;20202;-82
2021/11/28 00:48:30;;;;;;;6.05;5.45;;;;;;;;;;5058879;28;20202;-81
2021/11/28 00:51:21;;;;;;;5.95;5.07;;;;;;;;;;5052314;28;20206;-80
2021/11/28 00:53:50;;;;;;;7.07;5.30;;;;;;;;;;5067322;28;20713;-81
2021/11/28 00:56:18;;;;;;;8.27;5.40;;;;;;;;;;5052131;28;20207;-81
2021/11/28 00:58:46;;;;;;;9.18;6.00;;;;;;;;;;5052176;28;20613;-81
2021/11/28 01:01:13;;;;;;;7.72;4.53;;;;;;;;;;5058363;28;20653;-80
2021/11/28 01:03:40;;;;;;;6.35;5.40;;;;;;;;;;5061053;28;20220;-81
2021/11/28 01:06:07;;;;;;;6.00;4.22;;;;;;;;;;5069958;28;20201;-80
2021/11/28 01:08:34;;;;;;;7.30;5.80;;;;;;;;;;5062766;28;20198;-79
2021/11/28 01:11:02;;;;;;;8.38;5.80;;;;;;;;;;5056537;28;20199;-80
2021/11/28 01:13:29;;;;;;;11.23;4.90;;;;;;;;;;5051719;28;20206;-79
2021/11/28 01:15:56;;;;;;;6.63;4.10;;;;;;;;;;5051880;28;20196;-79
2021/11/28 01:18:24;;;;;;;6.30;5.40;;;;;;;;;;5057621;28;20222;-79
2021/11/28 01:20:51;;;;;;;5.72;4.93;;;;;;;;;;5055895;28;20206;-79
2021/11/28 01:23:18;;;;;;;7.78;5.10;;;;;;;;;;5051530;28;20214;-80
2021/11/28 01:25:45;;;;;;;7.60;4.55;;;;;;;;;;5060719;28;20581;-79
2021/11/28 01:28:13;;;;;;;6.20;4.85;;;;;;;;;;5064830;28;20205;-79
2021/11/28 01:30:41;;;;;;;6.13;4.75;;;;;;;;;;5058570;28;20261;-79
2021/11/28 01:33:08;;;;;;;6.25;4.75;;;;;;;;;;5060890;28;20194;-80
2021/11/28 01:35:35;;;;;;;10.30;5.03;;;;;;;;;;5053970;28;20198;-79
2021/11/28 01:38:03;;;;;;;8.57;4.97;;;;;;;;;;5072010;28;20237;-79
2021/11/28 01:40:30;;;;;;;9.70;5.90;;;;;;;;;;5066016;28;20543;-79
2021/11/28 01:43:01;;;;;;;8.40;4.43;;;;;;;;;;5066336;28;20301;-80
2021/11/28 01:45:31;;;;;;;7.45;4.85;;;;;;;;;;5054816;28;20759;-79
2021/11/28 01:47:59;;;;;;;5.85;4.60;;;;;;;;;;5051888;28;20573;-79
2021/11/28 01:50:28;;;;;;;5.50;4.20;;;;;;;;;;5065479;28;20201;-79
2021/11/28 01:52:55;;;;;;;4.50;4.10;;;;;;;;;;5063563;28;20198;-79
2021/11/28 01:55:23;;;;;;;4.95;4.50;;;;;;;;;;5052916;28;20226;-79
2021/11/28 01:57:51;;;;;;;7.80;4.53;;;;;;;;;;5061429;28;20203;-79
2021/11/28 02:00:19;;;;;;;3.67;3.25;;;;;;;;;;5051149;28;20210;-78
2021/11/28 02:02:48;;;;;;;6.15;4.35;;;;;;;;;;5064259;28;20248;-78
2021/11/28 02:05:15;;;;;;;7.18;4.78;;;;;;;;;;5054860;28;20194;-78
2021/11/28 02:07:42;;;;;;;4.07;3.67;;;;;;;;;;5065904;28;20201;-78
2021/11/28 02:10:10;;;;;;;7.75;4.78;;;;;;;;;;5066144;28;20199;-78
2021/11/28 02:12:37;;;;;;;8.93;4.43;;;;;;;;;;5056655;28;20190;-79
2021/11/28 02:15:06;;;;;;;5.53;4.47;;;;;;;;;;5072388;28;20205;-80
2021/11/28 02:17:33;;;;;;;4.35;3.88;;;;;;;;;;5060674;28;20252;-80
2021/11/28 02:20:01;;;;;;;9.23;5.22;;;;;;;;;;5058254;28;20198;-80
2021/11/28 02:22:30;;;;;;;3.95;3.50;;;;;;;;;;5067948;28;20716;-80
2021/11/28 02:24:57;;;;;;;5.47;4.80;;;;;;;;;;5070999;28;20198;-79
2021/11/28 02:27:24;;;;;;;5.72;4.05;;;;;;;;;;5060636;28;20195;-80
2021/11/28 02:29:51;;;;;;;10.00;4.40;;;;;;;;;;5054703;28;20195;-80
2021/11/28 02:32:19;;;;;;;6.18;3.58;;;;;;;;;;5072043;28;20565;-78
2021/11/28 02:34:46;;;;;;;7.47;5.20;;;;;;;;;;5061732;28;20207;-78
2021/11/28 02:37:13;;;;;;;5.50;4.95;;;;;;;;;;5071193;28;20195;-78
2021/11/28 02:39:41;;;;;;;3.97;3.58;;;;;;;;;;5072010;28;20187;-77
2021/11/28 02:42:08;;;;;;;5.95;4.32;;;;;;;;;;5069646;28;20302;-78
2021/11/28 02:44:36;;;;;;;5.05;4.28;;;;;;;;;;5068715;28;20186;-78
2021/11/28 02:47:03;;;;;;;7.18;4.38;;;;;;;;;;5058189;28;20218;-78
2021/11/28 02:49:31;;;;;;;8.13;4.60;;;;;;;;;;5055551;28;20573;-78
2021/11/28 02:51:58;;;;;;;7.80;4.22;;;;;;;;;;5059469;28;20523;-78
2021/11/28 02:54:25;;;;;;;5.68;4.07;;;;;;;;;;5068445;28;20219;-78
2021/11/28 02:56:53;;;;;;;4.45;3.90;;;;;;;;;;5058093;28;20206;-78
2021/11/28 02:59:20;;;;;;;8.30;5.75;;;;;;;;;;5055997;28;20713;-78
2021/11/28 03:01:48;;;;;;;5.80;3.95;;;;;;;;;;5072841;28;20561;-78
2021/11/28 03:04:15;;;;;;;6.38;4.82;;;;;;;;;;5064809;28;20285;-78
2021/11/28 03:06:42;;;;;;;5.03;3.55;;;;;;;;;;5061721;28;20202;-79
2021/11/28 03:09:09;;;;;;;11.32;4.85;;;;;;;;;;5055908;28;20206;-79
2021/11/28 03:11:36;;;;;;;5.35;4.38;;;;;;;;;;5062740;28;20205;-79
2021/11/28 03:14:04;;;;;;;12.93;4.95;;;;;;;;;;5056170;28;20195;-80
2021/11/28 03:16:32;;;;;;;7.50;4.72;;;;;;;;;;5063541;28;20213;-80
2021/11/28 03:18:59;;;;;;;6.65;5.05;;;;;;;;;;5070570;28;20209;-80
2021/11/28 03:21:27;;;;;;;7.03;4.82;;;;;;;;;;5068856;28;20592;-79
2021/11/28 03:23:56;;;;;;;4.55;4.15;;;;;;;;;;5056324;28;20226;-79
2021/11/28 03:26:24;;;;;;;5.10;4.50;;;;;;;;;;5054195;28;20199;-81
2021/11/28 03:28:52;;;;;;;5.18;4.53;;;;;;;;;;5057092;28;20191;-79
2021/11/28 03:31:21;;;;;;;12.18;5.60;;;;;;;;;;5061790;28;20198;-80
2021/11/28 03:33:48;;;;;;;5.85;4.80;;;;;;;;;;5055528;28;20202;-80
2021/11/28 03:36:17;;;;;;;6.22;4.95;;;;;;;;;;5066051;28;20203;-81
2021/11/28 03:38:44;;;;;;;8.70;5.10;;;;;;;;;;5073518;28;20655;-80
2021/11/28 03:41:12;;;;;;;6.68;4.47;;;;;;;;;;5066624;28;20202;-80
2021/11/28 03:43:40;;;;;;;5.20;4.70;;;;;;;;;;5066958;28;20211;-80
2021/11/28 03:46:08;;;;;;;4.75;4.35;;;;;;;;;;5059218;28;20221;-80
2021/11/28 03:48:36;;;;;;;5.88;4.43;;;;;;;;;;5052340;28;20562;-81
2021/11/28 03:51:03;;;;;;;9.52;5.35;;;;;;;;;;5061970;28;20195;-78
2021/11/28 03:53:30;;;;;;;7.38;5.72;;;;;;;;;;5056184;28;20720;-77
2021/11/28 03:56:01;;;;;;;8.32;4.85;;;;;;;;;;5066173;28;20573;-78
2021/11/28 03:58:28;;;;;;;6.20;5.03;;;;;;;;;;5057664;28;20283;-78
2021/11/28 04:00:55;;;;;;;8.70;5.20;;;;;;;;;;5062948;28;20234;-78
2021/11/28 04:03:22;;;;;;;8.15;5.63;;;;;;;;;;5065579;28;20218;-78
2021/11/28 04:05:51;;;;;;;7.60;5.20;;;;;;;;;;5057696;28;20195;-78
2021/11/28 04:08:18;;;;;;;7.18;5.20;;;;;;;;;;5070355;28;20198;-78
2021/11/28 04:10:45;;;;;;;9.95;5.93;;;;;;;;;;5059735;28;20247;-77
2021/11/28 04:13:12;;;;;;;8.45;6.13;;;;;;;;;;5053255;28;20199;-78
2021/11/28 04:15:39;;;;;;;6.18;4.75;;;;;;;;;;5060745;28;20202;-78
2021/11/28 04:18:06;;;;;;;5.75;4.40;;;;;;;;;;5070870;28;20205;-78
2021/11/28 04:20:34;;;;;;;6.07;4.38;;;;;;;;;;5056905;28;20208;-77
2021/11/28 04:23:02;;;;;;;5.32;4.57;;;;;;;;;;5061499;28;20249;-77
2021/11/28 04:25:30;;;;;;;6.40;5.18;;;;;;;;;;5061736;28;20573;-77
2021/11/28 04:27:57;;;;;;;5.93;4.80;;;;;;;;;;5057410;28;20194;-77
2021/11/28 04:30:25;;;;;;;8.20;4.90;;;;;;;;;;5062304;28;20647;-78
2021/11/28 04:32:53;;;;;;;7.93;4.80;;;;;;;;;;5060223;28;20190;-78
2021/11/28 04:35:21;;;;;;;6.53;4.72;;;;;;;;;;5056428;28;20261;-77
2021/11/28 04:37:48;;;;;;;6.90;4.38;;;;;;;;;;5053643;28;20662;-78
2021/11/28 04:40:16;;;;;;;6.97;4.07;;;;;;;;;;5054498;28;20226;-78
2021/11/28 04:42:43;;;;;;;4.78;4.20;;;;;;;;;;5068501;28;20214;-78
2021/11/28 04:45:11;;;;;;;6.15;4.85;;;;;;;;;;5070405;28;20194;-78
2021/11/28 04:47:38;;;;;;;8.48;5.60;;;;;;;;;;5052106;28;20203;-79
2021/11/28 04:50:06;;;;;;;7.75;5.00;;;;;;;;;;5063559;28;20206;-78
2021/11/28 04:52:33;;;;;;;8.57;4.95;;;;;;;;;;5065850;28;20190;-79
2021/11/28 04:55:00;;;;;;;4.97;4.03;;;;;;;;;;5062874;28;20206;-77
2021/11/28 04:57:29;;;;;;;5.70;5.20;;;;;;;;;;5059851;28;20572;-78
2021/11/28 04:59:56;;;;;;;5.22;4.60;;;;;;;;;;5055694;28;20225;-77
2021/11/28 05:02:23;;;;;;;4.63;4.22;;;;;;;;;;5070644;28;20201;-77
2021/11/28 05:04:50;;;;;;;6.95;5.28;;;;;;;;;;5059166;28;20214;-77
2021/11/28 05:07:17;;;;;;;8.50;5.00;;;;;;;;;;5064583;28;20210;-77
2021/11/28 05:09:44;;;;;;;7.45;5.20;;;;;;;;;;5053566;28;20206;-77
2021/11/28 05:12:11;;;;;;;4.55;4.10;;;;;;;;;;5051980;28;20600;-77
2021/11/28 05:14:40;;;;;;;4.97;4.25;;;;;;;;;;5056884;28;20194;-77
2021/11/28 05:17:07;;;;;;;7.53;4.13;;;;;;;;;;5059667;28;20665;-77
2021/11/28 05:19:34;;;;;;;9.35;4.03;;;;;;;;;;5067283;28;20194;-77
2021/11/28 05:22:01;;;;;;;8.55;6.25;;;;;;;;;;5063129;28;20195;-78
2021/11/28 05:24:28;;;;;;;6.18;4.30;;;;;;;;;;5059996;28;20287;-79
2021/11/28 05:26:55;;;;;;;4.63;4.18;;;;;;;;;;5061036;28;20680;-77
2021/11/28 05:29:22;;;;;;;7.97;4.70;;;;;;;;;;5061834;28;20210;-78
2021/11/28 05:31:51;;;;;;;5.90;5.20;;;;;;;;;;5052564;28;20371;-77
2021/11/28 05:34:18;;;;;;;5.38;4.88;;;;;;;;;;5055026;28;20190;-77
2021/11/28 05:36:45;;;;;;;5.47;4.97;;;;;;;;;;5059859;28;20657;-77
2021/11/28 05:39:12;;;;;;;8.63;5.05;;;;;;;;;;5067486;28;20202;-77
2021/11/28 05:41:39;;;;;;;6.15;5.55;;;;;;;;;;5058651;28;20199;-77
2021/11/28 05:44:06;;;;;;;7.57;5.40;;;;;;;;;;5058637;28;20708;-77
2021/11/28 05:46:33;;;;;;;6.78;5.25;;;;;;;;;;5065967;28;20199;-76
2021/11/28 05:49:02;;;;;;;9.48;5.78;;;;;;;;;;5057865;28;20201;-76
2021/11/28 05:51:29;;;;;;;5.50;5.00;;;;;;;;;;5064255;28;20198;-77
2021/11/28 05:53:56;;;;;;;6.10;5.00;;;;;;;;;;5059419;28;20650;-78
2021/11/28 05:56:23;;;;;;;4.90;4.05;;;;;;;;;;5067852;28;20299;-78
2021/11/28 05:58:50;;;;;;;9.18;4.82;;;;;;;;;;5074828;28;20190;-78
2021/11/28 06:01:17;;;;;;;6.63;5.00;;;;;;;;;;5074368;28;20661;-79
2021/11/28 06:03:44;;;;;;;7.07;5.07;;;;;;;;;;5059180;28;20218;-80
2021/11/28 06:06:13;;;;;;;7.70;5.55;;;;;;;;;;5064923;28;20200;-79
2021/11/28 06:08:41;;;;;;;7.30;5.10;;;;;;;;;;5064397;28;20646;-78
2021/11/28 06:11:08;;;;;;;6.20;5.10;;;;;;;;;;5062644;28;20287;-78
2021/11/28 06:13:35;;;;;;;5.60;4.95;;;;;;;;;;5073986;28;20202;-78
2021/11/28 06:16:04;;;;;;;7.07;5.95;;;;;;;;;;5062784;28;20206;-78
2021/11/28 06:18:31;;;;;;;5.82;4.50;;;;;;;;;;5055587;28;20626;-78
2021/11/28 06:20:58;;;;;;;6.82;5.18;;;;;;;;;;5068384;28;20210;-77
2021/11/28 06:23:26;;;;;;;6.47;5.03;;;;;;;;;;5059113;28;20211;-80
2021/11/28 06:25:54;;;;;;;6.47;5.55;;;;;;;;;;5068128;28;20191;-79
2021/11/28 06:28:21;;;;;;;9.98;5.00;;;;;;;;;;5074226;28;20214;-79
2021/11/28 06:30:48;;;;;;;6.57;4.57;;;;;;;;;;5063716;28;20203;-78
2021/11/28 06:33:16;;;;;;;8.10;5.70;;;;;;;;;;5055319;28;20203;-78
2021/11/28 06:35:43;;;;;;;6.18;4.75;;;;;;;;;;5061227;28;20194;-78
2021/11/28 06:38:10;;;;;;;6.72;4.18;;;;;;;;;;5072331;28;20195;-78
2021/11/28 06:40:39;;;;;;;6.13;4.78;;;;;;;;;;5069580;28;20190;-78
2021/11/28 06:43:07;;;;;;;7.20;4.97;;;;;;;;;;5071911;28;20712;-78
2021/11/28 06:45:34;;;;;;;5.55;4.57;;;;;;;;;;5075064;28;20210;-78
2021/11/28 06:48:02;;;;;;;6.93;5.50;;;;;;;;;;5075455;28;20198;-78
2021/11/28 06:50:29;;;;;;;6.15;4.15;;;;;;;;;;5082688;28;20210;-78
2021/11/28 06:52:56;;;;;;;5.80;5.20;;;;;;;;;;5084408;28;20198;-80
2021/11/28 06:55:23;;;;;;;5.80;5.20;;;;;;;;;;5084597;28;20194;-77
2021/11/28 06:57:51;;;;;;;4.82;4.22;;;;;;;;;;5075075;28;20198;-78
2021/11/28 07:00:19;;;;;;;9.15;4.78;;;;;;;;;;5068160;28;20600;-78
2021/11/28 07:02:46;;;;;;;6.45;4.85;;;;;;;;;;5063111;28;20282;-78
2021/11/28 07:05:13;;;;;;;7.32;4.45;;;;;;;;;;5056885;28;20229;-77
2021/11/28 07:07:40;;;;;;;8.75;5.55;;;;;;;;;;5068690;28;20364;-77
2021/11/28 07:10:08;;;;;;;7.30;5.38;;;;;;;;;;5057385;28;20221;-77
2021/11/28 07:12:35;;;;;;;7.47;4.65;;;;;;;;;;5054017;28;20654;-78
2021/11/28 07:15:03;;;;;;;4.78;4.35;;;;;;;;;;5063973;28;20206;-77
2021/11/28 07:17:31;;;;;;;4.30;3.70;;;;;;;;;;5068737;28;20191;-77
2021/11/28 07:19:58;;;;;;;6.90;4.35;;;;;;;;;;5065305;28;20204;-79
2021/11/28 07:22:25;;;;;;;11.43;5.60;;;;;;;;;;5054813;28;20191;-81
2021/11/28 07:24:52;;;;;;;6.00;5.30;;;;;;;;;;5055305;28;20221;-81
2021/11/28 07:27:19;;;;;;;6.85;4.93;;;;;;;;;;5064885;28;20198;-83
2021/11/28 07:29:46;;;;;;;6.53;5.60;;;;;;;;;;5062272;28;20203;-82
2021/11/28 07:32:14;;;;;;;5.80;5.20;;;;;;;;;;5057194;28;20529;-85
2021/11/28 07:34:41;;;;;;;6.85;5.07;;;;;;;;;;5061932;28;20197;-83
2021/11/28 07:37:09;;;;;;;9.15;5.45;;;;;;;;;;5062421;28;20201;-82
2021/11/28 07:39:36;;;;;;;6.55;5.05;;;;;;;;;;5068708;28;20681;-82
2021/11/28 07:42:03;;;;;;;9.57;5.78;;;;;;;;;;5053735;28;20217;-83
2021/11/28 07:44:30;;;;;;;7.85;5.75;;;;;;;;;;5053552;28;20207;-82
2021/11/28 07:46:58;;;;;;;6.97;4.45;;;;;;;;;;5053998;28;20605;-82
2021/11/28 07:49:26;;;;;;;6.88;5.10;;;;;;;;;;5057679;28;20558;-84
2021/11/28 07:51:53;;;;;;;9.70;4.65;;;;;;;;;;5066379;28;20198;-84
2021/11/28 07:54:20;;;;;;;5.20;4.72;;;;;;;;;;5071141;28;20661;-85
2021/11/28 07:56:47;;;;;;;4.47;4.05;;;;;;;;;;5062439;28;20206;-82
2021/11/28 07:59:15;;;;;;;6.90;4.40;;;;;;;;;;5066662;28;20215;-82
2021/11/28 08:01:42;;;;;;;5.03;4.47;;;;;;;;;;5068115;28;20194;-83
2021/11/28 08:04:09;;;;;;;7.53;4.15;;;;;;;;;;5060233;28;20221;-83
2021/11/28 08:06:37;;;;;;;4.40;4.10;;;;;;;;;;5064650;28;20194;-82
2021/11/28 08:09:05;;;;;;;6.70;4.07;;;;;;;;;;5063686;28;20672;-83
2021/11/28 08:11:33;;;;;;;5.10;4.60;;;;;;;;;;5056178;28;20199;-83
2021/11/28 08:14:00;;;;;;;4.35;3.95;;;;;;;;;;5053404;28;20635;-82
2021/11/28 08:16:27;;;;;;;6.90;4.40;;;;;;;;;;5065514;28;20193;-84
2021/11/28 08:18:54;;;;;;;4.65;4.13;;;;;;;;;;5069749;28;20208;-84
2021/11/28 08:21:26;;;;;;;5.00;3.80;;;;;;;;;;5064839;28;20697;-84
2021/11/28 08:23:54;;;;;;;4.82;4.43;;;;;;;;;;5058276;28;20291;-80
2021/11/28 08:26:21;;;;;;;4.90;4.30;;;;;;;;;;5066336;28;20668;-79
2021/11/28 08:28:48;;;;;;;4.30;3.90;;;;;;;;;;5064950;28;20689;-80
2021/11/28 08:31:15;;;;;;;5.15;4.68;;;;;;;;;;5073869;28;20194;-80
2021/11/28 08:33:43;;;;;;;4.85;4.35;;;;;;;;;;5068282;28;20187;-80
2021/11/28 08:36:10;;;;;;;7.28;5.35;;;;;;;;;;5061149;28;20445;-80
2021/11/28 08:38:42;;;;;;;4.57;3.95;;;;;;;;;;5062094;28;20198;-77
2021/11/28 08:41:10;;;;;;;5.38;4.57;;;;;;;;;;5060187;28;20662;-77
2021/11/28 08:43:37;;;;;;;5.93;4.68;;;;;;;;;;5059401;28;20194;-77
2021/11/28 08:46:04;;;;;;;6.78;4.60;;;;;;;;;;5074064;28;20198;-77
2021/11/28 08:48:32;;;;;;;6.97;3.92;;;;;;;;;;5057993;28;20205;-79
2021/11/28 08:50:59;;;;;;;8.57;4.50;;;;;;;;;;5061212;28;20201;-78
2021/11/28 08:53:27;;;;;;;6.60;4.65;;;;;;;;;;5071218;28;20209;-79
2021/11/28 08:55:55;;;;;;;4.70;4.20;;;;;;;;;;5064700;28;20221;-77
2021/11/28 08:58:24;;;;;;;9.02;4.15;;;;;;;;;;5056840;28;20210;-77
2021/11/28 09:00:51;;;;;;;5.80;4.75;;;;;;;;;;5069701;28;20218;-77
2021/11/28 09:03:18;;;;;;;7.30;5.72;;;;;;;;;;5056542;28;20572;-77
2021/11/28 09:05:45;;;;;;;8.82;5.30;;;;;;;;;;5062883;28;20218;-77
2021/11/28 09:08:12;;;;;;;6.13;5.13;;;;;;;;;;5062776;28;20676;-77
2021/11/28 09:10:41;;;;;;;5.32;4.68;;;;;;;;;;5059487;28;20685;-76
2021/11/28 09:13:08;;;;;;;5.80;4.82;;;;;;;;;;5056541;28;20651;-77
2021/11/28 09:15:37;;;;;;;7.18;5.28;;;;;;;;;;5059707;28;20224;-79
2021/11/28 09:18:08;;;;;;;5.65;5.15;;;;;;;;;;5057339;28;20202;-79
2021/11/28 09:20:37;;;;;;;5.72;4.25;;;;;;;;;;5063361;28;20198;-80
2021/11/28 09:25:50;;;;;;;5.15;4.65;;;;;;;;;;5058729;28;20230;-79
2021/11/28 09:28:17;;;;;;;6.25;4.85;;;;;;;;;;5060711;28;20596;-78
2021/11/28 09:30:47;;;;;;;4.55;4.15;;;;;;;;;;5056622;28;20214;-78
2021/11/28 09:33:14;;;;;;;5.97;5.18;;;;;;;;;;5053217;28;20708;-76
2021/11/28 09:35:41;;;;;;;5.95;4.60;;;;;;;;;;5065313;28;20202;-80
2021/11/28 09:38:08;;;;;;;5.72;4.40;;;;;;;;;;5070517;28;20194;-79
2021/11/28 09:40:35;;;;;;;5.07;4.57;;;;;;;;;;5065876;28;20199;-79
2021/11/28 09:43:04;;;;;;;7.18;4.63;;;;;;;;;;5057734;28;20577;-80
2021/11/28 09:45:31;;;;;;;7.63;5.82;;;;;;;;;;5059238;28;20213;-79
2021/11/28 09:47:59;;;;;;;8.05;4.63;;;;;;;;;;5057693;28;20202;-79
2021/11/28 09:50:27;;;;;;;9.02;5.60;;;;;;;;;;5062787;28;20202;-80
2021/11/28 09:52:55;;;;;;;5.97;5.40;;;;;;;;;;5061403;28;20606;-80
2021/11/28 09:55:22;;;;;;;7.63;5.63;;;;;;;;;;5055727;28;20195;-80
2021/11/28 09:57:50;;;;;;;6.25;5.00;;;;;;;;;;5060861;28;20210;-79
2021/11/28 10:00:20;;;;;;;5.55;5.00;;;;;;;;;;5052952;28;20229;-79
2021/11/28 10:02:47;;;;;;;5.00;4.47;;;;;;;;;;5064185;28;20202;-79
2021/11/28 10:05:16;;;;;;;7.22;5.30;;;;;;;;;;5061742;28;20276;-79
2021/11/28 10:07:44;;;;;;;6.97;5.80;;;;;;;;;;5058588;28;20230;-79
2021/11/28 10:10:12;;;;;;;6.03;4.95;;;;;;;;;;5063880;28;20198;-79
2021/11/28 10:12:42;;;;;;;5.07;4.57;;;;;;;;;;5055875;28;20194;-79
2021/11/28 10:15:10;;;;;;;4.47;4.00;;;;;;;;;;5058363;28;20241;-79
2021/11/28 10:17:38;;;;;;;6.10;4.65;;;;;;;;;;5053672;28;20646;-78
2021/11/28 10:20:07;;;;;;;6.20;4.32;;;;;;;;;;5066295;28;20588;-78
2021/11/28 10:22:35;;;;;;;4.75;4.30;;;;;;;;;;5058267;28;20569;-79
2021/11/28 10:25:04;;;;;;;5.55;4.85;;;;;;;;;;5051282;28;20229;-79
2021/11/28 10:27:39;;;;;;;6.55;5.00;;;;;;;;;;5058575;28;20199;-79
2021/11/28 10:30:07;;;;;;;5.13;4.22;;;;;;;;;;5052589;28;20193;-79
2021/11/28 10:32:34;;;;;;;5.70;3.85;;;;;;;;;;5056890;28;20677;-79
2021/11/28 10:35:01;;;;;;;4.00;3.60;;;;;;;;;;5065328;28;20207;-80
2021/11/28 10:37:33;;;;;;;10.75;5.78;;;;;;;;;;5066917;28;20210;-79
2021/11/28 10:40:02;;;;;;;7.22;5.65;;;;;;;;;;5071156;28;20199;-79
2021/11/28 10:42:29;;;;;;;4.70;4.30;;;;;;;;;;5061703;28;20545;-79
2021/11/28 10:45:00;;;;;;;5.05;4.45;;;;;;;;;;5061370;28;20218;-79
2021/11/28 10:47:34;;;;;;;6.93;5.07;;;;;;;;;;5070730;28;20237;-79
2021/11/28 10:50:07;;;;;;;6.80;4.30;;;;;;;;;;5065593;28;20197;-80
2021/11/28 10:52:34;;;;;;;6.53;4.60;;;;;;;;;;5058716;28;20198;-79
2021/11/28 10:55:10;;;;;;;7.63;5.43;;;;;;;;;;5070250;28;20198;-79
2021/11/28 10:57:38;;;;;;;8.40;4.82;;;;;;;;;;5061907;28;20221;-82
2021/11/28 11:00:07;;;;;;;5.90;5.15;;;;;;;;;;5064228;28;20213;-80
2021/11/28 11:02:37;;;;;;;5.30;4.80;;;;;;;;;;5057074;28;20205;-81
2021/11/28 11:05:05;;;;;;;4.88;4.28;;;;;;;;;;5067486;28;20221;-81
2021/11/28 11:07:42;;;;;;;5.72;4.80;;;;;;;;;;5060068;28;20240;-80
2021/11/28 11:10:17;;;;;;;7.13;6.07;;;;;;;;;;5066501;28;20558;-79
2021/11/28 11:12:44;;;;;;;6.15;5.43;;;;;;;;;;5063377;28;20212;-80
2021/11/28 11:15:15;;;;;;;7.15;6.07;;;;;;;;;;5071774;28;20194;-80
2021/11/28 11:17:56;;;;;;;5.72;5.10;;;;;;;;;;5054074;28;20564;-80
2021/11/28 11:20:25;;;;;;;7.75;4.90;;;;;;;;;;5060566;28;20565;-81
2021/11/28 11:22:52;;;;;;;6.43;5.70;;;;;;;;;;5062300;28;20191;-80
2021/11/28 11:25:21;;;;;;;7.57;5.40;;;;;;;;;;5061297;28;20555;-81
2021/11/28 11:27:49;;;;;;;8.65;4.63;;;;;;;;;;5064874;28;20206;-80
2021/11/28 11:30:18;;;;;;;6.82;4.40;;;;;;;;;;5069603;28;20191;-79
2021/11/28 11:32:46;;;;;;;6.85;5.88;;;;;;;;;;5054912;28;20229;-79
2021/11/28 11:35:16;;;;;;;6.10;4.85;;;;;;;;;;5059976;28;20203;-78
2021/11/28 11:37:43;;;;;;;8.20;6.30;;;;;;;;;;5063344;28;20559;-79
2021/11/28 11:40:11;;;;;;;8.73;6.60;;;;;;;;;;5062882;28;20487;-80
2021/11/28 11:42:41;;;;;;;8.35;6.45;;;;;;;;;;5063955;28;20213;-81
2021/11/28 11:45:09;;;;;;;6.88;5.75;;;;;;;;;;5055447;28;20230;-85
2021/11/28 11:47:36;;;;;;;8.60;5.15;;;;;;;;;;5069407;28;20205;-83
2021/11/28 11:50:04;;;;;;;7.53;5.95;;;;;;;;;;5064537;28;20226;-81
2021/11/28 11:52:31;;;;;;;8.20;5.68;;;;;;;;;;5071084;28;20194;-80
2021/11/28 11:55:01;;;;;;;7.45;6.30;;;;;;;;;;5065691;28;20202;-82
2021/11/28 11:57:32;;;;;;;8.05;6.05;;;;;;;;;;5055690;28;20215;-80
2021/11/28 12:00:08;;;;;;;6.88;5.35;;;;;;;;;;5061606;28;20198;-79
2021/11/28 12:02:36;;;;;;;10.10;6.80;;;;;;;;;;5073503;28;20190;-79
2021/11/28 12:05:04;;;;;;;6.38;5.03;;;;;;;;;;5063357;28;20629;-79
2021/11/28 12:07:50;;;;;;;5.90;5.22;;;;;;;;;;5058832;28;20195;-80
2021/11/28 12:10:26;;;;;;;7.90;5.00;;;;;;;;;;5061378;28;20540;-80
2021/11/28 12:12:54;;;;;;;8.05;5.07;;;;;;;;;;5055950;28;20202;-80
2021/11/28 12:15:24;;;;;;;6.30;4.70;;;;;;;;;;5057272;28;20205;-79
2021/11/28 12:17:53;;;;;;;8.82;5.82;;;;;;;;;;5056951;28;20187;-80
2021/11/28 12:20:35;;;;;;;6.40;5.72;;;;;;;;;;5060645;28;20696;-78
2021/11/28 12:23:03;;;;;;;7.43;5.32;;;;;;;;;;5054598;28;20206;-78
2021/11/28 12:25:43;;;;;;;7.78;5.43;;;;;;;;;;5057623;28;20332;-77
2021/11/28 12:28:29;;;;;;;8.93;6.43;;;;;;;;;;5063752;28;20193;-77
2021/11/28 12:30:58;;;;;;;8.65;6.72;;;;;;;;;;5064616;28;20641;-77
2021/11/28 12:33:44;;;;;;;7.63;6.35;;;;;;;;;;5056396;28;20191;-77
2021/11/28 12:36:31;;;;;;;7.53;6.10;;;;;;;;;;5059797;28;20202;-77
2021/11/28 12:39:00;;;;;;;10.73;7.55;;;;;;;;;;5069146;28;20198;-79
2021/11/28 12:42:00;;;;;;;11.73;7.65;;;;;;;;;;5063477;28;20538;-80
2021/11/28 12:44:28;;;;;;;9.23;7.90;;;;;;;;;;5066679;28;20233;-79
2021/11/28 12:46:56;;;;;;;12.65;8.82;;;;;;;;;;5070740;28;20218;-77
2021/11/28 12:49:24;;;;;;;9.32;7.25;;;;;;;;;;5051516;28;20677;-80
2021/11/28 12:51:51;;;;;;;6.30;5.70;;;;;;;;;;5052050;28;20191;-77
2021/11/28 12:54:26;;;;;;;9.93;6.82;;;;;;;;;;5052794;28;20697;-77
2021/11/28 12:57:11;;;;;;;8.43;7.40;;;;;;;;;;5060757;28;20194;-77
2021/11/28 12:59:38;;;;;;;9.30;6.93;;;;;;;;;;5063232;28;20218;-78
2021/11/28 13:02:05;;;;;;;9.10;6.85;;;;;;;;;;5059087;28;20214;-78
2021/11/28 13:04:49;;;;;;;9.02;6.45;;;;;;;;;;5062101;28;20195;-78
2021/11/28 13:07:43;;;;;;;7.70;7.00;;;;;;;;;;5067554;28;20213;-78
2021/11/28 13:10:26;;;;;;;10.43;7.85;;;;;;;;;;5059024;28;20642;-78
2021/11/28 13:12:53;;;;;;;6.28;5.68;;;;;;;;;;5053734;28;20198;-78
2021/11/28 13:15:22;;;;;;;6.70;6.00;;;;;;;;;;5069339;28;20190;-78
2021/11/28 13:17:49;;;;;;;7.20;6.13;;;;;;;;;;5051615;28;20209;-77
2021/11/28 13:20:16;;;;;;;5.80;5.20;;;;;;;;;;5056890;28;20236;-77
2021/11/28 13:22:43;;;;;;;11.23;5.97;;;;;;;;;;5058075;28;20210;-77
2021/11/28 13:25:29;;;;;;;7.90;6.68;;;;;;;;;;5053711;28;20310;-77
2021/11/28 13:28:01;;;;;;;8.32;6.60;;;;;;;;;;5058042;28;20661;-77
2021/11/28 13:30:33;;;;;;;8.50;6.88;;;;;;;;;;5055284;28;20190;-77
2021/11/28 13:33:05;;;;;;;8.55;6.75;;;;;;;;;;5061732;28;20198;-78
2021/11/28 13:35:32;;;;;;;6.63;5.82;;;;;;;;;;5053915;28;20182;-81
2021/11/28 13:38:12;;;;;;;7.43;6.13;;;;;;;;;;5065736;28;20199;-77
2021/11/28 13:40:40;;;;;;;9.95;7.68;;;;;;;;;;5058119;28;20609;-76
2021/11/28 13:43:07;;;;;;;8.02;6.85;;;;;;;;;;5058027;28;20202;-80
2021/11/28 13:45:35;;;;;;;10.00;7.07;;;;;;;;;;5056342;28;20686;-77
2021/11/28 13:48:02;;;;;;;9.25;7.97;;;;;;;;;;5063787;28;20376;-77
2021/11/28 13:50:29;;;;;;;8.55;6.35;;;;;;;;;;5064502;28;20202;-77
2021/11/28 13:53:11;;;;;;;11.98;7.15;;;;;;;;;;5059234;28;20434;-77
2021/11/28 13:55:50;;;;;;;7.05;5.75;;;;;;;;;;5062058;28;20238;-77
2021/11/28 13:58:17;;;;;;;8.75;7.10;;;;;;;;;;5072714;28;20194;-77
2021/11/28 14:00:44;;;;;;;9.00;7.05;;;;;;;;;;5065338;28;20222;-77
2021/11/28 14:03:11;;;;;;;9.98;6.28;;;;;;;;;;5067633;28;20774;-78
2021/11/28 14:05:38;;;;;;;7.93;6.80;;;;;;;;;;5080078;28;20203;-78
2021/11/28 14:08:05;;;;;;;7.85;6.47;;;;;;;;;;5078093;28;20187;-77
2021/11/28 14:10:32;;;;;;;9.93;6.78;;;;;;;;;;5078802;28;20194;-78
2021/11/28 14:13:02;;;;;;;8.77;6.32;;;;;;;;;;5075688;28;20655;-77
2021/11/28 14:15:31;;;;;;;7.47;6.38;;;;;;;;;;5074901;28;20191;-78
2021/11/28 14:17:59;;;;;;;7.97;6.40;;;;;;;;;;5083662;28;20206;-77
2021/11/28 14:20:27;;;;;;;7.55;6.85;;;;;;;;;;5084679;28;20190;-78
2021/11/28 14:22:54;;;;;;;9.68;6.90;;;;;;;;;;5082512;28;20199;-78
2021/11/28 14:25:27;;;;;;;7.13;5.70;;;;;;;;;;5076491;28;20199;-77
2021/11/28 14:28:15;;;;;;;8.27;7.28;;;;;;;;;;5072678;28;20197;-77
2021/11/28 14:30:43;;;;;;;8.25;6.68;;;;;;;;;;5063639;28;20195;-78
2021/11/28 14:33:11;;;;;;;9.23;7.22;;;;;;;;;;5058152;28;20203;-77
2021/11/28 14:35:47;;;;;;;12.07;7.55;;;;;;;;;;5063167;28;20194;-77
2021/11/28 14:38:15;;;;;;;7.22;6.13;;;;;;;;;;5060576;28;20628;-77
2021/11/28 14:40:44;;;;;;;9.52;7.30;;;;;;;;;;5057407;28;20680;-78
2021/11/28 14:43:11;;;;;;;9.90;6.72;;;;;;;;;;5059188;28;20195;-78
2021/11/28 14:45:39;;;;;;;8.05;7.20;;;;;;;;;;5059088;28;20218;-77
2021/11/28 14:48:13;;;;;;;9.65;6.75;;;;;;;;;;5065559;28;20221;-78
2021/11/28 14:50:44;;;;;;;9.43;5.90;;;;;;;;;;5069003;28;20229;-79
2021/11/28 14:53:11;;;;;;;13.68;6.63;;;;;;;;;;5057248;28;20195;-77
2021/11/28 14:55:41;;;;;;;8.27;6.80;;;;;;;;;;5057700;28;20194;-77
2021/11/28 14:58:09;;;;;;;8.23;6.18;;;;;;;;;;5062932;28;20230;-78